Jomi — C6VK4 — position and weather

sailwx.info

Track history (hours):
 
Tides and Currents Weather Stations Pressure Air Temp Water Temp Dewpoint Dewpoint Depression Visibility Wind Speed Wind Dir Waves Ship Positions

Jomi

Last reported at 2017-Jan-22 15:33 UTC. Time now 2017-Jan-23 17:01 UTC.
Position N 54°32' E 010°15'.

Length 88 m; draft 6 m.

Type: Cargo ship. MMSI: 309701000.

Date/timePositionNaut miles runAvg speedWind from/ knotsBaromVisibWave heightAir tempDewpointWater temp
2017-Jan-22 15:33N 54°32' E 010°15'7 6.5
2017-Jan-22 14:31N 54°33' E 010°26'7 7.5
2017-Jan-22 13:33N 54°35' E 010°38'7 7.3
2017-Jan-22 12:33N 54°35' E 010°51'8 7.6
2017-Jan-22 11:33N 54°36' E 011°04'9 8.6
2017-Jan-22 10:33N 54°34' E 011°18'9 9.1
2017-Jan-22 09:33N 54°30' E 011°33'9 8.9
2017-Jan-22 08:33N 54°27' E 011°47'9 9.0
2017-Jan-22 07:33N 54°27' E 012°02'8 8.0
2017-Jan-22 06:33N 54°32' E 012°12'8 8.5
2017-Jan-22 05:33N 54°39' E 012°21'28 9.0
2017-Jan-22 02:31N 54°52' E 013°03'19 8.7
2017-Jan-22 00:20N 54°58' E 013°34'7 8.9
2017-Jan-21 23:31N 55°01' E 013°46'9 9.2
2017-Jan-21 22:32N 55°04' E 014°00'9 8.7
2017-Jan-21 21:33N 55°10' E 014°11'9 9.2
2017-Jan-21 20:33N 55°17' E 014°22'9 9.2
2017-Jan-21 19:33N 55°24' E 014°33'9 9.2
2017-Jan-21 18:32N 55°29' E 014°47'9 9.0
2017-Jan-21 17:33N 55°32' E 015°01'14 9.6
2017-Jan-21 16:08N 55°36' E 015°24'  
2017-Jan-13 00:28N 55°30' E 015°23'910.3
2017-Jan-12 23:33N 55°28' E 015°07'1110.8
2017-Jan-12 22:33N 55°24' E 014°49'1010.4
2017-Jan-12 21:33N 55°19' E 014°33'1010.3
2017-Jan-12 20:33N 55°12' E 014°21'10 9.9
2017-Jan-12 19:33N 55°10' E 014°03'1110.6
2017-Jan-12 18:32N 55°12' E 013°45'2310.5
2017-Jan-12 16:21N 55°14' E 013°05'  
Track history (hours):
 
Tides and Currents Weather Stations Pressure Air Temp Water Temp Dewpoint Dewpoint Depression Visibility Wind Speed Wind Dir Waves Ship Positions

Jomi

Last reported at 2017-Jan-22 15:33 UTC. Time now 2017-Jan-23 17:01 UTC.
Position N 54°32' E 010°15'.

Length 88 m; draft 6 m.

Type: Cargo ship. MMSI: 309701000.

Date/timePositionNaut miles runAvg speedWind from/ knotsBaromVisibWave heightAir tempDewpointWater temp
2017-Jan-22 15:33N 54°32' E 010°15'7 6.5
2017-Jan-22 14:31N 54°33' E 010°26'7 7.5
2017-Jan-22 13:33N 54°35' E 010°38'7 7.3
2017-Jan-22 12:33N 54°35' E 010°51'8 7.6
2017-Jan-22 11:33N 54°36' E 011°04'9 8.6
2017-Jan-22 10:33N 54°34' E 011°18'9 9.1
2017-Jan-22 09:33N 54°30' E 011°33'9 8.9
2017-Jan-22 08:33N 54°27' E 011°47'9 9.0
2017-Jan-22 07:33N 54°27' E 012°02'8 8.0
2017-Jan-22 06:33N 54°32' E 012°12'8 8.5
2017-Jan-22 05:33N 54°39' E 012°21'28 9.0
2017-Jan-22 02:31N 54°52' E 013°03'19 8.7
2017-Jan-22 00:20N 54°58' E 013°34'7 8.9
2017-Jan-21 23:31N 55°01' E 013°46'9 9.2
2017-Jan-21 22:32N 55°04' E 014°00'9 8.7
2017-Jan-21 21:33N 55°10' E 014°11'9 9.2
2017-Jan-21 20:33N 55°17' E 014°22'9 9.2
2017-Jan-21 19:33N 55°24' E 014°33'9 9.2
2017-Jan-21 18:32N 55°29' E 014°47'9 9.0
2017-Jan-21 17:33N 55°32' E 015°01'14 9.6
2017-Jan-21 16:08N 55°36' E 015°24'  
2017-Jan-13 00:28N 55°30' E 015°23'910.3
2017-Jan-12 23:33N 55°28' E 015°07'1110.8
2017-Jan-12 22:33N 55°24' E 014°49'1010.4
2017-Jan-12 21:33N 55°19' E 014°33'1010.3
2017-Jan-12 20:33N 55°12' E 014°21'10 9.9
2017-Jan-12 19:33N 55°10' E 014°03'1110.6
2017-Jan-12 18:32N 55°12' E 013°45'2310.5
2017-Jan-12 16:21N 55°14' E 013°05'  

Dump ship's entire track history